createdAt,value
2024-05-09T00:00:55.249Z,1136.00
2024-05-09T00:01:55.189Z,1133.00
2024-05-09T00:02:55.140Z,1135.00
2024-05-09T00:03:55.141Z,1133.00
2024-05-09T00:04:55.187Z,1129.00
2024-05-09T00:05:55.132Z,1136.00
2024-05-09T00:06:55.020Z,1131.00
2024-05-09T00:07:55.027Z,1132.00
2024-05-09T00:08:54.951Z,1135.00
2024-05-09T00:09:54.892Z,1137.00
2024-05-09T00:10:54.998Z,1137.00
2024-05-09T00:11:54.873Z,1134.00
2024-05-09T00:12:54.825Z,1129.00
2024-05-09T00:13:54.784Z,1130.00
2024-05-09T00:14:54.756Z,1134.00
2024-05-09T00:15:54.702Z,1132.00
2024-05-09T00:16:54.736Z,1136.00
2024-05-09T00:17:54.855Z,1130.00
2024-05-09T00:18:54.629Z,1129.00
2024-05-09T00:19:54.605Z,1129.00
2024-05-09T00:20:54.579Z,1128.00
2024-05-09T00:21:54.547Z,1130.00
2024-05-09T00:22:54.543Z,1129.00
2024-05-09T00:23:54.490Z,1135.00
2024-05-09T00:24:54.468Z,1125.00
2024-05-09T00:25:54.529Z,1134.00
2024-05-09T00:26:54.427Z,1125.00
2024-05-09T00:27:54.411Z,1130.00
2024-05-09T00:28:54.405Z,1124.00
2024-05-09T00:29:54.351Z,1134.00
2024-05-09T00:30:54.321Z,1136.00
2024-05-09T00:31:54.366Z,1125.00
2024-05-09T00:32:54.368Z,1126.00
2024-05-09T00:33:54.311Z,1130.00
2024-05-09T00:34:54.183Z,1131.00
2024-05-09T00:35:54.131Z,1123.00
2024-05-09T00:36:54.093Z,1132.00
2024-05-09T00:37:54.138Z,1133.00
2024-05-09T00:38:54.043Z,1126.00
2024-05-09T00:39:54.011Z,1130.00
2024-05-09T00:40:54.042Z,1126.00
2024-05-09T00:41:53.950Z,1132.00
2024-05-09T00:42:53.911Z,1137.00
2024-05-09T00:43:53.908Z,1135.00
2024-05-09T00:44:53.873Z,1133.00
2024-05-09T00:45:53.865Z,1120.00
2024-05-09T00:46:53.808Z,1133.00
2024-05-09T00:47:54.064Z,1130.00
2024-05-09T00:48:53.818Z,1124.00
2024-05-09T00:49:53.765Z,1121.00
2024-05-09T00:50:53.687Z,1125.00
2024-05-09T00:51:53.684Z,1127.00
2024-05-09T00:52:53.672Z,1127.00
2024-05-09T00:53:53.594Z,1133.00
2024-05-09T00:54:53.550Z,1128.00
2024-05-09T00:55:53.523Z,1126.00
2024-05-09T00:56:53.509Z,1130.00
2024-05-09T00:57:53.462Z,1125.00
2024-05-09T00:58:53.459Z,1132.00
2024-05-09T00:59:53.396Z,1125.00
2024-05-09T01:00:53.379Z,1117.00
2024-05-09T01:01:53.444Z,1121.00
2024-05-09T01:02:53.412Z,1126.00
2024-05-09T01:03:53.380Z,1126.00
2024-05-09T01:04:53.412Z,1125.00
2024-05-09T01:05:53.273Z,1126.00
2024-05-09T01:06:53.203Z,1128.00
2024-05-09T01:07:53.178Z,1126.00
2024-05-09T01:08:53.129Z,1120.00
2024-05-09T01:09:54.056Z,1120.00
2024-05-09T01:10:53.268Z,1121.00
2024-05-09T01:11:53.051Z,1123.00
2024-05-09T01:12:52.899Z,1127.00
2024-05-09T01:13:52.870Z,1129.00
2024-05-09T01:14:52.779Z,1134.00
2024-05-09T01:15:52.735Z,1127.00
2024-05-09T01:16:52.696Z,1124.00
2024-05-09T01:17:52.906Z,1118.00
2024-05-09T01:18:52.746Z,1128.00
2024-05-09T01:19:52.654Z,1129.00
2024-05-09T01:20:52.507Z,1120.00
2024-05-09T01:21:52.433Z,1129.00
2024-05-09T01:22:52.396Z,1125.00
2024-05-09T01:23:52.301Z,1129.00
2024-05-09T01:24:52.250Z,1117.00
2024-05-09T01:25:52.276Z,1119.00
2024-05-09T01:26:52.170Z,1124.00
2024-05-09T01:27:52.146Z,1126.00
2024-05-09T01:28:52.128Z,1127.00
2024-05-09T01:29:52.068Z,1122.00
2024-05-09T01:30:52.030Z,1123.00
2024-05-09T01:31:52.071Z,1116.00
2024-05-09T01:32:52.099Z,1126.00
2024-05-09T01:33:51.998Z,1125.00
2024-05-09T01:34:51.976Z,1122.00
2024-05-09T01:35:51.872Z,1114.00
2024-05-09T01:36:51.854Z,1113.00
2024-05-09T01:37:51.813Z,1124.00
2024-05-09T01:38:51.780Z,1110.00
2024-05-09T01:39:51.722Z,1119.00
2024-05-09T01:40:51.726Z,1113.00
2024-05-09T01:41:51.669Z,1115.00
2024-05-09T01:42:51.637Z,1115.00
2024-05-09T01:43:51.631Z,1118.00
2024-05-09T01:44:51.572Z,1114.00
2024-05-09T01:45:51.553Z,1112.00
2024-05-09T01:46:51.547Z,1116.00
2024-05-09T01:47:51.696Z,1115.00
2024-05-09T01:48:51.564Z,1112.00
2024-05-09T01:49:51.460Z,1111.00
2024-05-09T01:50:51.420Z,1115.00
2024-05-09T01:51:51.384Z,1118.00
2024-05-09T01:52:51.381Z,1116.00
2024-05-09T01:53:51.339Z,1116.00
2024-05-09T01:54:51.305Z,1114.00
2024-05-09T01:55:51.316Z,1118.00
2024-05-09T01:56:51.257Z,1108.00
2024-05-09T01:57:51.252Z,1116.00
2024-05-09T01:58:51.229Z,1112.00
2024-05-09T01:59:51.198Z,1109.00
2024-05-09T02:00:51.140Z,1108.00
2024-05-09T02:01:56.752Z,1116.00
2024-05-09T02:02:52.263Z,1117.00
2024-05-09T02:03:51.272Z,1117.00
2024-05-09T02:04:51.014Z,1118.00
2024-05-09T02:05:51.075Z,1114.00
2024-05-09T02:06:50.853Z,1112.00
2024-05-09T02:07:50.860Z,1117.00
2024-05-09T02:08:50.730Z,1117.00
2024-05-09T02:09:50.685Z,1114.00
2024-05-09T02:10:51.076Z,1112.00
2024-05-09T02:11:50.666Z,1111.00
2024-05-09T02:12:50.521Z,1111.00
2024-05-09T02:13:50.501Z,1114.00
2024-05-09T02:14:50.412Z,1109.00
2024-05-09T02:15:50.355Z,1105.00
2024-05-09T02:16:50.315Z,1117.00
2024-05-09T02:17:50.466Z,1106.00
2024-05-09T02:18:50.285Z,1115.00
2024-05-09T02:19:50.221Z,1111.00
2024-05-09T02:20:50.174Z,1109.00
2024-05-09T02:21:50.084Z,1112.00
2024-05-09T02:22:50.092Z,1111.00
2024-05-09T02:23:50.016Z,1111.00
2024-05-09T02:24:49.996Z,1109.00
2024-05-09T02:25:49.964Z,1110.00
2024-05-09T02:26:49.936Z,1107.00
2024-05-09T02:27:49.888Z,1102.00
2024-05-09T02:28:49.963Z,1115.00
2024-05-09T02:29:49.814Z,1102.00
2024-05-09T02:30:49.813Z,1102.00
2024-05-09T02:31:49.795Z,1109.00
2024-05-09T02:32:49.853Z,1107.00
2024-05-09T02:33:49.989Z,1099.00
2024-05-09T02:34:49.733Z,1108.00
2024-05-09T02:35:49.627Z,1111.00
2024-05-09T02:36:49.613Z,1107.00
2024-05-09T02:37:49.618Z,1098.00
2024-05-09T02:38:49.529Z,1100.00
2024-05-09T02:39:49.495Z,1104.00
2024-05-09T02:40:49.479Z,1100.00
2024-05-09T02:41:49.439Z,1106.00
2024-05-09T02:42:49.401Z,1096.00
2024-05-09T02:43:49.419Z,1109.00
2024-05-09T02:44:49.337Z,1106.00
2024-05-09T02:45:49.350Z,1096.00
2024-05-09T02:46:49.375Z,1105.00
2024-05-09T02:47:49.431Z,1098.00
2024-05-09T02:48:49.337Z,1105.00
2024-05-09T02:49:49.263Z,1099.00
2024-05-09T02:50:49.263Z,1099.00
2024-05-09T02:51:49.143Z,1108.00
2024-05-09T02:52:49.241Z,1100.00
2024-05-09T02:53:49.096Z,1098.00
2024-05-09T02:54:49.032Z,1100.00
2024-05-09T02:55:49.044Z,1095.00
2024-05-09T02:56:48.974Z,1092.00
2024-05-09T02:57:49.051Z,1103.00
2024-05-09T02:58:48.971Z,1103.00
2024-05-09T02:59:48.879Z,1102.00
2024-05-09T03:00:48.954Z,1107.00
2024-05-09T03:01:48.930Z,1101.00
2024-05-09T03:02:48.983Z,1101.00
2024-05-09T03:03:48.895Z,1103.00
2024-05-09T03:04:48.875Z,1104.00
2024-05-09T03:05:48.753Z,1098.00
2024-05-09T03:06:48.682Z,1099.00
2024-05-09T03:07:48.719Z,1100.00
2024-05-09T03:08:48.630Z,1101.00
2024-05-09T03:09:48.580Z,1093.00
2024-05-09T03:10:48.598Z,1093.00
2024-05-09T03:11:48.670Z,1101.00
2024-05-09T03:12:48.501Z,1097.00
2024-05-09T03:13:48.474Z,1092.00
2024-05-09T03:14:48.402Z,1091.00
2024-05-09T03:15:48.368Z,1096.00
2024-05-09T03:16:48.336Z,1096.00
2024-05-09T03:17:48.528Z,1090.00
2024-05-09T03:18:48.325Z,1093.00
2024-05-09T03:19:48.244Z,1097.00
2024-05-09T03:20:48.267Z,1097.00
2024-05-09T03:21:48.183Z,1094.00
2024-05-09T03:22:48.147Z,1097.00
2024-05-09T03:23:48.174Z,1105.00
2024-05-09T03:24:48.081Z,1098.00
2024-05-09T03:25:48.071Z,1096.00
2024-05-09T03:26:48.007Z,1089.00
2024-05-09T03:27:47.971Z,1097.00
2024-05-09T03:28:47.971Z,1094.00
2024-05-09T03:29:47.920Z,1099.00
2024-05-09T03:30:47.860Z,1095.00
2024-05-09T03:31:47.942Z,1095.00
2024-05-09T03:32:48.024Z,1088.00
2024-05-09T03:33:48.007Z,1100.00
2024-05-09T03:34:47.733Z,1091.00
2024-05-09T03:35:48.139Z,1092.00
2024-05-09T03:36:47.768Z,1087.00
2024-05-09T03:37:47.632Z,1084.00
2024-05-09T03:38:47.593Z,1089.00
2024-05-09T03:39:47.916Z,1086.00
2024-05-09T03:40:47.902Z,1090.00
2024-05-09T03:41:47.545Z,1091.00
2024-05-09T03:42:47.469Z,1095.00
2024-05-09T03:43:47.473Z,1096.00
2024-05-09T03:44:47.399Z,1090.00
2024-05-09T03:45:47.385Z,1088.00
2024-05-09T03:46:47.380Z,1089.00
2024-05-09T03:47:47.459Z,1091.00
2024-05-09T03:48:47.356Z,1091.00
2024-05-09T03:49:47.283Z,1095.00
2024-05-09T03:50:47.389Z,1081.00
2024-05-09T03:51:47.192Z,1096.00
2024-05-09T03:52:47.200Z,1096.00
2024-05-09T03:53:47.164Z,1083.00
2024-05-09T03:54:47.126Z,1086.00
2024-05-09T03:55:47.155Z,1089.00
2024-05-09T03:56:47.044Z,1094.00
2024-05-09T03:57:47.027Z,1083.00
2024-05-09T03:58:47.131Z,1087.00
2024-05-09T03:59:46.961Z,1093.00
2024-05-09T04:00:47.046Z,1084.00
2024-05-09T04:01:47.054Z,1085.00
2024-05-09T04:02:47.035Z,1085.00
2024-05-09T04:03:47.137Z,1082.00
2024-05-09T04:04:46.917Z,1079.00
2024-05-09T04:05:46.775Z,1080.00
2024-05-09T04:06:46.719Z,1085.00
2024-05-09T04:07:46.777Z,1085.00
2024-05-09T04:08:46.725Z,1084.00
2024-05-09T04:09:46.637Z,1083.00
2024-05-09T04:10:46.642Z,1088.00
2024-05-09T04:11:46.692Z,1088.00
2024-05-09T04:12:46.553Z,1086.00
2024-05-09T04:13:46.544Z,1077.00
2024-05-09T04:14:46.499Z,1087.00
2024-05-09T04:15:46.498Z,1079.00
2024-05-09T04:16:46.510Z,1084.00
2024-05-09T04:17:46.520Z,1083.00
2024-05-09T04:18:46.439Z,1081.00
2024-05-09T04:19:46.359Z,1084.00
2024-05-09T04:20:47.135Z,1079.00
2024-05-09T04:21:46.245Z,1085.00
2024-05-09T04:22:46.327Z,1079.00
2024-05-09T04:23:46.252Z,1079.00
2024-05-09T04:24:46.152Z,1083.00
2024-05-09T04:25:46.136Z,1078.00
2024-05-09T04:26:46.098Z,1078.00
2024-05-09T04:27:46.054Z,1080.00
2024-05-09T04:28:46.114Z,1072.00
2024-05-09T04:29:45.989Z,1068.00
2024-05-09T04:30:45.971Z,1071.00
2024-05-09T04:31:45.988Z,1076.00
2024-05-09T04:32:46.174Z,1076.00
2024-05-09T04:33:46.052Z,1071.00
2024-05-09T04:34:45.849Z,1067.00
2024-05-09T04:35:45.831Z,1076.00
2024-05-09T04:36:45.746Z,1071.00
2024-05-09T04:37:45.751Z,1072.00
2024-05-09T04:38:45.684Z,1070.00
2024-05-09T04:39:45.643Z,1071.00
2024-05-09T04:40:45.644Z,1074.00
2024-05-09T04:41:45.584Z,1066.00
2024-05-09T04:42:45.536Z,1078.00
2024-05-09T04:43:45.499Z,1069.00
2024-05-09T04:44:45.470Z,1079.00
2024-05-09T04:45:45.439Z,1068.00
2024-05-09T04:46:45.412Z,1071.00
2024-05-09T04:47:52.880Z,600.00
2024-05-09T04:48:52.994Z,600.00
2024-05-09T04:49:52.823Z,600.00
2024-05-09T04:50:52.781Z,600.00
2024-05-09T04:51:52.767Z,600.00
2024-05-09T04:52:52.774Z,600.00
2024-05-09T04:53:52.872Z,603.00
2024-05-09T04:54:54.080Z,606.00
2024-05-09T04:55:52.901Z,601.00
2024-05-09T04:56:52.899Z,601.00
2024-05-09T04:57:52.954Z,601.00
2024-05-09T04:58:53.001Z,607.00
2024-05-09T04:59:53.024Z,603.00
2024-05-09T05:00:53.166Z,600.00
2024-05-09T05:01:53.226Z,601.00
2024-05-09T05:02:53.338Z,600.00
2024-05-09T05:03:54.862Z,602.00
2024-05-09T05:04:53.710Z,602.00
2024-05-09T05:05:53.915Z,601.00
2024-05-09T05:06:53.530Z,602.00
2024-05-09T05:07:53.596Z,606.00
2024-05-09T05:08:53.619Z,605.00
2024-05-09T05:09:53.688Z,607.00
2024-05-09T05:10:53.835Z,602.00
2024-05-09T05:11:53.904Z,602.00
2024-05-09T05:12:53.804Z,604.00
2024-05-09T05:13:53.889Z,604.00
2024-05-09T05:14:53.909Z,601.00
2024-05-09T05:15:53.963Z,605.00
2024-05-09T05:16:54.013Z,604.00
2024-05-09T05:17:54.184Z,603.00
2024-05-09T05:18:54.158Z,600.00
2024-05-09T05:19:54.234Z,604.00
2024-05-09T05:20:54.263Z,604.00
2024-05-09T05:21:54.229Z,601.00
2024-05-09T05:22:54.314Z,600.00
2024-05-09T05:23:54.313Z,602.00
2024-05-09T05:24:54.361Z,603.00
2024-05-09T05:25:55.080Z,605.00
2024-05-09T05:26:54.443Z,605.00
2024-05-09T05:27:54.516Z,606.00
2024-05-09T05:28:54.590Z,606.00
2024-05-09T05:29:54.628Z,603.00
2024-05-09T05:30:54.663Z,604.00
2024-05-09T05:31:54.763Z,602.00
2024-05-09T05:32:54.855Z,603.00
2024-05-09T05:33:54.823Z,605.00
2024-05-09T05:34:54.854Z,604.00
2024-05-09T05:35:54.851Z,602.00
2024-05-09T05:36:54.897Z,601.00
2024-05-09T05:37:54.981Z,604.00
2024-05-09T05:38:55.025Z,604.00
2024-05-09T05:39:55.014Z,605.00
2024-05-09T05:40:55.241Z,602.00
2024-05-09T05:41:55.104Z,604.00
2024-05-09T05:42:55.160Z,601.00
2024-05-09T05:43:55.209Z,606.00
2024-05-09T05:44:55.220Z,602.00
2024-05-09T05:45:55.296Z,603.00
2024-05-09T05:46:55.304Z,602.00
2024-05-09T05:47:55.547Z,605.00
2024-05-09T05:48:55.487Z,600.00
2024-05-09T05:49:55.440Z,604.00
2024-05-09T05:50:55.494Z,603.00
2024-05-09T05:51:55.509Z,602.00
2024-05-09T05:52:55.582Z,604.00
2024-05-09T05:53:55.579Z,603.00
2024-05-09T05:54:55.611Z,604.00
2024-05-09T05:55:55.688Z,604.00
2024-05-09T05:56:55.703Z,605.00
2024-05-09T05:57:55.737Z,604.00
2024-05-09T05:58:55.844Z,606.00
2024-05-09T05:59:55.809Z,601.00
2024-05-09T06:00:55.958Z,605.00
2024-05-09T06:01:55.906Z,605.00
2024-05-09T06:02:55.999Z,605.00
2024-05-09T06:03:56.041Z,601.00
2024-05-09T06:04:56.126Z,603.00
2024-05-09T06:05:56.099Z,604.00
2024-05-09T06:06:56.076Z,604.00
2024-05-09T06:07:56.174Z,604.00
2024-05-09T06:08:56.182Z,603.00
2024-05-09T06:09:56.217Z,605.00
2024-05-09T06:10:56.356Z,603.00
2024-05-09T06:11:56.440Z,605.00
2024-05-09T06:12:56.309Z,604.00
2024-05-09T06:13:56.372Z,600.00
2024-05-09T06:14:56.407Z,603.00
2024-05-09T06:15:56.419Z,601.00
2024-05-09T06:16:58.359Z,601.00
2024-05-09T06:17:56.604Z,602.00
2024-05-09T06:18:56.705Z,604.00
2024-05-09T06:19:56.624Z,605.00
2024-05-09T06:20:56.656Z,604.00
2024-05-09T06:21:56.630Z,603.00
2024-05-09T06:22:56.689Z,603.00
2024-05-09T06:23:56.721Z,601.00
2024-05-09T06:24:56.741Z,604.00
2024-05-09T06:25:56.833Z,601.00
2024-05-09T06:26:56.805Z,605.00
2024-05-09T06:27:56.868Z,607.00
2024-05-09T06:28:56.911Z,604.00
2024-05-09T06:29:56.928Z,606.00
2024-05-09T06:30:56.952Z,604.00
2024-05-09T06:31:59.927Z,603.00
2024-05-09T06:32:57.052Z,606.00
2024-05-09T06:33:57.105Z,606.00
2024-05-09T06:34:56.995Z,602.00
2024-05-09T06:35:56.949Z,603.00
2024-05-09T06:36:56.948Z,602.00
2024-05-09T06:37:56.990Z,603.00
2024-05-09T06:38:56.948Z,604.00
2024-05-09T06:39:56.939Z,607.00
2024-05-09T06:40:57.036Z,601.00
2024-05-09T06:41:56.927Z,607.00
2024-05-09T06:42:56.938Z,601.00
2024-05-09T06:43:56.924Z,605.00
2024-05-09T06:44:56.915Z,602.00
2024-05-09T06:45:56.946Z,603.00
2024-05-09T06:46:59.742Z,603.00
2024-05-09T06:47:57.045Z,603.00
2024-05-09T06:48:57.054Z,603.00
2024-05-09T06:49:56.906Z,603.00
2024-05-09T06:50:56.968Z,604.00
2024-05-09T06:51:56.848Z,608.00
2024-05-09T06:52:56.888Z,605.00
2024-05-09T06:53:56.843Z,604.00
2024-05-09T06:54:56.827Z,604.00
2024-05-09T06:55:56.875Z,606.00
2024-05-09T06:56:56.815Z,604.00
2024-05-09T06:57:56.832Z,608.00
2024-05-09T06:58:56.899Z,604.00
2024-05-09T06:59:56.899Z,604.00
2024-05-09T07:00:56.890Z,602.00
2024-05-09T07:01:56.824Z,603.00
2024-05-09T07:02:57.296Z,603.00
2024-05-09T07:03:56.885Z,605.00
2024-05-09T07:04:56.983Z,603.00
2024-05-09T07:05:56.782Z,603.00
2024-05-09T07:06:56.762Z,604.00
2024-05-09T07:07:56.762Z,603.00
2024-05-09T07:08:56.748Z,606.00
2024-05-09T07:09:56.730Z,601.00
2024-05-09T07:10:56.778Z,603.00
2024-05-09T07:11:56.800Z,607.00
2024-05-09T07:12:56.753Z,601.00
2024-05-09T07:13:56.759Z,603.00
2024-05-09T07:14:57.700Z,603.00
2024-05-09T07:15:56.688Z,603.00
2024-05-09T07:16:56.749Z,604.00
2024-05-09T07:17:56.926Z,603.00
2024-05-09T07:18:56.919Z,605.00
2024-05-09T07:19:56.663Z,604.00
2024-05-09T07:20:56.698Z,605.00
2024-05-09T07:21:56.630Z,604.00
2024-05-09T07:22:56.692Z,602.00
2024-05-09T07:23:56.680Z,604.00
2024-05-09T07:24:56.636Z,602.00
2024-05-09T07:25:56.646Z,603.00
2024-05-09T07:26:56.631Z,601.00
2024-05-09T07:27:56.610Z,603.00
2024-05-09T07:28:56.684Z,605.00
2024-05-09T07:29:56.681Z,600.00
2024-05-09T07:30:56.714Z,603.00
2024-05-09T07:31:56.747Z,604.00
2024-05-09T07:32:57.000Z,605.00
2024-05-09T07:33:56.839Z,607.00
2024-05-09T07:34:56.819Z,602.00
2024-05-09T07:35:56.885Z,602.00
2024-05-09T07:36:56.882Z,606.00
2024-05-09T07:37:56.965Z,604.00
2024-05-09T07:38:56.937Z,604.00
2024-05-09T07:39:56.972Z,606.00
2024-05-09T07:40:57.046Z,601.00
2024-05-09T07:41:57.040Z,600.00
2024-05-09T07:42:57.060Z,605.00
2024-05-09T07:43:57.108Z,603.00
2024-05-09T07:45:00.927Z,604.00
2024-05-09T07:46:07.083Z,604.00
2024-05-09T07:49:44.253Z,604.00
2024-05-09T07:50:35.599Z,604.00
2024-05-09T07:51:33.074Z,604.00
2024-05-09T07:52:39.166Z,605.00
2024-05-09T07:53:21.918Z,605.00
2024-05-09T07:53:59.880Z,605.00
2024-05-09T07:54:57.357Z,605.00
2024-05-09T07:55:57.190Z,606.00
2024-05-09T07:56:57.084Z,607.00
2024-05-09T07:57:56.977Z,609.00
2024-05-09T07:58:56.960Z,607.00
2024-05-09T07:59:56.900Z,606.00
2024-05-09T08:00:56.972Z,608.00
2024-05-09T08:01:57.519Z,608.00
2024-05-09T08:02:56.898Z,603.00
2024-05-09T08:03:57.069Z,605.00
2024-05-09T08:04:56.989Z,600.00
2024-05-09T08:05:56.801Z,603.00
2024-05-09T08:06:56.855Z,600.00
2024-05-09T08:07:56.791Z,602.00
2024-05-09T08:08:57.886Z,600.00
2024-05-09T08:09:56.813Z,603.00
2024-05-09T08:10:57.229Z,604.00
2024-05-09T08:11:56.811Z,600.00
2024-05-09T08:12:56.823Z,602.00
2024-05-09T08:13:56.792Z,602.00
2024-05-09T08:14:56.839Z,600.00
2024-05-09T08:15:56.864Z,603.00
2024-05-09T08:16:56.918Z,602.00
2024-05-09T08:17:57.228Z,604.00
2024-05-09T08:18:57.022Z,602.00
2024-05-09T08:19:56.900Z,600.00
2024-05-09T08:20:56.928Z,600.00
2024-05-09T08:21:57.007Z,602.00
2024-05-09T08:22:56.947Z,601.00
2024-05-09T08:23:56.949Z,601.00
2024-05-09T08:24:57.027Z,600.00
2024-05-09T08:25:56.962Z,603.00
2024-05-09T08:26:56.990Z,600.00
2024-05-09T08:27:57.019Z,600.00
2024-05-09T08:28:57.014Z,600.00
2024-05-09T08:29:57.038Z,603.00
2024-05-09T08:30:57.216Z,604.00
2024-05-09T08:31:57.148Z,606.00
2024-05-09T08:32:57.132Z,601.00
2024-05-09T08:33:57.197Z,601.00
2024-05-09T08:34:57.159Z,603.00
2024-05-09T08:35:57.093Z,603.00
2024-05-09T08:36:59.671Z,601.00
2024-05-09T08:37:57.229Z,602.00
2024-05-09T08:38:57.084Z,602.00
2024-05-09T08:39:57.098Z,601.00
2024-05-09T08:40:57.112Z,601.00
2024-05-09T08:41:57.054Z,601.00
2024-05-09T08:42:57.056Z,602.00
2024-05-09T08:43:57.044Z,601.00
2024-05-09T08:44:57.010Z,601.00
2024-05-09T08:45:57.004Z,601.00
2024-05-09T08:46:56.988Z,600.00
2024-05-09T08:47:57.060Z,601.00
2024-05-09T08:48:57.129Z,600.00
2024-05-09T08:49:57.011Z,600.00
2024-05-09T08:50:56.915Z,600.00
2024-05-09T08:51:56.962Z,600.00
2024-05-09T08:52:56.901Z,600.00
2024-05-09T08:53:56.891Z,602.00
2024-05-09T08:54:56.902Z,602.00
2024-05-09T08:55:56.854Z,601.00
2024-05-09T08:56:56.835Z,604.00
2024-05-09T08:57:56.856Z,601.00
2024-05-09T08:58:56.810Z,600.00
2024-05-09T08:59:56.774Z,601.00
2024-05-09T09:00:56.843Z,602.00
2024-05-09T09:01:56.796Z,601.00
2024-05-09T09:02:56.737Z,602.00
2024-05-09T09:03:56.790Z,601.00
2024-05-09T09:04:56.767Z,601.00
2024-05-09T09:05:56.673Z,601.00
2024-05-09T09:06:58.280Z,600.00
2024-05-09T09:07:56.630Z,601.00
2024-05-09T09:08:56.619Z,600.00
2024-05-09T09:09:56.629Z,602.00
2024-05-09T09:10:56.665Z,601.00
2024-05-09T09:11:57.484Z,602.00
2024-05-09T09:12:56.683Z,603.00
2024-05-09T09:13:56.550Z,601.00
2024-05-09T09:14:56.550Z,603.00
2024-05-09T09:15:56.651Z,602.00
2024-05-09T09:16:56.592Z,602.00
2024-05-09T09:17:56.755Z,601.00
2024-05-09T09:18:56.739Z,603.00
2024-05-09T09:19:56.611Z,600.00
2024-05-09T09:20:56.617Z,601.00
2024-05-09T09:21:56.623Z,601.00
2024-05-09T09:22:56.619Z,601.00
2024-05-09T09:23:57.458Z,602.00
2024-05-09T09:24:56.634Z,603.00
2024-05-09T09:25:56.608Z,602.00
2024-05-09T09:26:56.626Z,601.00
2024-05-09T09:27:56.645Z,601.00
2024-05-09T09:28:56.673Z,602.00
2024-05-09T09:29:56.687Z,602.00
2024-05-09T09:30:56.708Z,600.00
2024-05-09T09:31:56.734Z,601.00
2024-05-09T09:32:56.819Z,600.00
2024-05-09T09:33:57.009Z,602.00
2024-05-09T09:34:56.923Z,601.00
2024-05-09T09:35:56.895Z,602.00
2024-05-09T09:36:56.899Z,602.00
2024-05-09T09:37:56.963Z,601.00
2024-05-09T09:38:56.953Z,602.00
2024-05-09T09:40:57.080Z,600.00
2024-05-09T09:41:57.046Z,601.00
2024-05-09T09:42:57.088Z,600.00
2024-05-09T09:43:57.107Z,601.00
2024-05-09T09:45:04.321Z,602.00
2024-05-09T09:45:58.335Z,602.00
2024-05-09T09:46:57.165Z,602.00
2024-05-09T09:47:57.202Z,602.00
2024-05-09T09:48:57.218Z,602.00
2024-05-09T09:49:57.054Z,602.00
2024-05-09T09:50:57.049Z,604.00
2024-05-09T09:51:57.060Z,602.00
2024-05-09T09:52:57.026Z,603.00
2024-05-09T09:53:57.014Z,600.00
2024-05-09T09:54:57.074Z,603.00
2024-05-09T09:55:57.084Z,600.00
2024-05-09T09:56:57.120Z,600.00
2024-05-09T09:57:57.170Z,602.00
2024-05-09T09:58:57.187Z,602.00
2024-05-09T09:59:57.197Z,600.00
2024-05-09T10:00:57.365Z,601.00
2024-05-09T10:01:57.459Z,603.00
2024-05-09T10:02:57.405Z,602.00
2024-05-09T10:03:57.413Z,602.00
2024-05-09T10:04:57.497Z,601.00
2024-05-09T10:05:57.438Z,603.00
2024-05-09T10:06:57.438Z,600.00
2024-05-09T10:07:57.450Z,600.00
2024-05-09T10:08:57.466Z,602.00
2024-05-09T10:09:57.534Z,602.00
2024-05-09T10:10:57.620Z,602.00
2024-05-09T10:12:57.648Z,602.00
2024-05-09T10:13:57.660Z,601.00
2024-05-09T10:14:57.668Z,602.00
2024-05-09T10:15:57.760Z,602.00
2024-05-09T10:16:57.741Z,602.00
2024-05-09T10:17:57.902Z,601.00
2024-05-09T10:18:58.057Z,603.00
2024-05-09T10:19:57.948Z,601.00
2024-05-09T10:20:58.164Z,602.00
2024-05-09T10:21:57.972Z,602.00
2024-05-09T10:22:57.968Z,601.00
2024-05-09T10:23:57.992Z,600.00
2024-05-09T10:24:58.078Z,601.00
2024-05-09T10:25:58.094Z,601.00
2024-05-09T10:26:58.112Z,600.00
2024-05-09T10:27:58.184Z,601.00
2024-05-09T10:28:58.185Z,603.00
2024-05-09T10:29:58.205Z,601.00
2024-05-09T10:30:58.305Z,601.00
2024-05-09T10:31:58.270Z,602.00
2024-05-09T10:32:58.403Z,602.00
2024-05-09T10:33:58.533Z,602.00
2024-05-09T10:34:58.408Z,601.00
2024-05-09T10:35:58.401Z,601.00
2024-05-09T10:36:58.898Z,601.00
2024-05-09T10:37:58.480Z,603.00
2024-05-09T10:38:58.504Z,602.00
2024-05-09T10:39:58.585Z,603.00
2024-05-09T10:40:58.550Z,601.00
2024-05-09T10:41:58.603Z,602.00
2024-05-09T10:42:59.573Z,601.00
2024-05-09T10:43:58.677Z,602.00
2024-05-09T10:44:58.674Z,600.00
2024-05-09T10:45:58.742Z,601.00
2024-05-09T10:46:58.768Z,600.00
2024-05-09T10:47:58.980Z,601.00
2024-05-09T10:49:58.869Z,601.00
2024-05-09T10:50:58.862Z,601.00
2024-05-09T10:51:58.952Z,602.00
2024-05-09T10:52:58.930Z,601.00
2024-05-09T10:53:58.976Z,602.00
2024-05-09T10:55:00.402Z,602.00
2024-05-09T10:55:59.037Z,601.00
2024-05-09T10:56:59.187Z,600.00
2024-05-09T10:57:59.136Z,602.00
2024-05-09T10:58:59.203Z,601.00
2024-05-09T10:59:59.205Z,600.00
2024-05-09T11:01:00.706Z,601.00
2024-05-09T11:01:59.344Z,603.00
2024-05-09T11:02:59.253Z,601.00
2024-05-09T11:03:59.396Z,602.00
2024-05-09T11:05:59.213Z,604.00
2024-05-09T11:07:00.484Z,604.00
2024-05-09T11:07:59.160Z,604.00
2024-05-09T11:08:59.158Z,604.00
2024-05-09T11:09:59.196Z,604.00
2024-05-09T11:11:00.269Z,603.00
2024-05-09T11:11:59.283Z,602.00
2024-05-09T11:12:59.300Z,602.00
2024-05-09T11:13:59.274Z,602.00
2024-05-09T11:14:59.311Z,603.00
2024-05-09T11:15:59.539Z,603.00
2024-05-09T11:16:59.367Z,604.00
2024-05-09T11:17:59.549Z,602.00
2024-05-09T11:18:59.697Z,602.00
2024-05-09T11:19:59.503Z,604.00
2024-05-09T11:20:59.465Z,603.00
2024-05-09T11:21:59.591Z,601.00
2024-05-09T11:22:59.525Z,602.00
2024-05-09T11:23:59.540Z,603.00
2024-05-09T11:24:59.589Z,603.00
2024-05-09T11:25:59.605Z,603.00
2024-05-09T11:26:59.643Z,602.00
2024-05-09T11:27:59.752Z,602.00
2024-05-09T11:28:59.711Z,603.00
2024-05-09T11:29:59.704Z,602.00
2024-05-09T11:30:59.951Z,601.00
2024-05-09T11:31:59.795Z,602.00
2024-05-09T11:33:00.101Z,603.00
2024-05-09T11:33:59.904Z,603.00
2024-05-09T11:34:59.942Z,603.00
2024-05-09T11:35:59.902Z,601.00
2024-05-09T11:36:59.952Z,602.00
2024-05-09T11:37:59.958Z,603.00
2024-05-09T11:39:00.533Z,602.00
2024-05-09T11:40:00.135Z,603.00
2024-05-09T11:41:00.088Z,602.00
2024-05-09T11:42:00.147Z,603.00
2024-05-09T11:43:00.182Z,603.00
2024-05-09T11:44:00.190Z,603.00
2024-05-09T11:45:00.205Z,602.00
2024-05-09T11:46:00.319Z,602.00
2024-05-09T11:47:00.255Z,603.00
2024-05-09T11:48:00.375Z,603.00
2024-05-09T11:49:00.530Z,605.00
2024-05-09T11:50:00.499Z,605.00
2024-05-09T11:51:00.387Z,605.00
2024-05-09T11:52:00.665Z,604.00
2024-05-09T11:53:00.458Z,603.00
2024-05-09T11:54:00.525Z,605.00
2024-05-09T11:55:00.585Z,605.00
2024-05-09T11:56:00.595Z,606.00
2024-05-09T11:57:00.635Z,602.00
2024-05-09T11:58:00.685Z,602.00
2024-05-09T11:59:00.702Z,604.00
2024-05-09T12:00:01.074Z,603.00
2024-05-09T12:01:00.900Z,605.00
2024-05-09T12:02:00.919Z,603.00
2024-05-09T12:03:00.863Z,604.00
2024-05-09T12:04:01.216Z,604.00
2024-05-09T12:05:00.939Z,603.00
2024-05-09T12:06:01.094Z,604.00
2024-05-09T12:07:00.898Z,602.00
2024-05-09T12:08:00.904Z,603.00
2024-05-09T12:09:00.934Z,603.00
2024-05-09T12:10:00.995Z,603.00
2024-05-09T12:11:01.292Z,605.00
2024-05-09T12:12:01.017Z,604.00
2024-05-09T12:13:01.083Z,604.00
2024-05-09T12:14:01.065Z,603.00
2024-05-09T12:15:01.154Z,604.00
2024-05-09T12:16:01.270Z,603.00
2024-05-09T12:17:01.224Z,604.00
2024-05-09T12:18:03.657Z,602.00
2024-05-09T12:19:01.258Z,606.00
2024-05-09T12:20:01.202Z,604.00
2024-05-09T12:21:01.150Z,604.00
2024-05-09T12:22:01.221Z,605.00
2024-05-09T12:23:01.129Z,604.00
2024-05-09T12:24:01.106Z,605.00
2024-05-09T12:25:01.122Z,604.00
2024-05-09T12:26:01.269Z,604.00